METAR Data
IDs: Format: Raw Decoded Include TAF

Data at: 0120 UTC 01 Mar 2021

KPOF 010115Z AUTO 33013G19KT 10SM -RA BKN014 BKN027 OVC090 14/13 A2990 RMK AO2 P0000 T01390128